createdAt,value
2019-01-12T00:00:39.897Z,68.23
2019-01-12T00:03:10.440Z,68.16
2019-01-12T00:05:40.974Z,67.95
2019-01-12T00:08:11.454Z,67.52
2019-01-12T00:10:42.089Z,67.92
2019-01-12T00:13:12.679Z,67.46
2019-01-12T00:15:44.700Z,67.34
2019-01-12T00:18:15.105Z,67.72
2019-01-12T00:20:45.840Z,67.81
2019-01-12T00:23:16.474Z,68.08
2019-01-12T00:25:46.727Z,68.58
2019-01-12T00:28:16.978Z,68.74
2019-01-12T00:30:47.683Z,68.88
2019-01-12T00:33:18.152Z,69.58
2019-01-12T00:35:48.454Z,69.24
2019-01-12T00:38:19.330Z,69.01
2019-01-12T00:40:49.827Z,69.11
2019-01-12T00:43:20.152Z,70.16
2019-01-12T00:45:50.612Z,69.91
2019-01-12T00:48:20.886Z,69.99
2019-01-12T00:50:51.567Z,70.02
2019-01-12T00:53:22.036Z,70.03
2019-01-12T00:55:52.503Z,70.45
2019-01-12T00:58:23.424Z,70.19
2019-01-12T01:00:53.931Z,70.54
2019-01-12T01:03:24.376Z,70.27
2019-01-12T01:05:55.009Z,70.31
2019-01-12T01:08:25.551Z,70.19
2019-01-12T01:10:56.002Z,70.41
2019-01-12T01:13:26.764Z,70.55
2019-01-12T01:15:57.090Z,70.60
2019-01-12T01:18:27.470Z,70.46
2019-01-12T01:20:58.262Z,70.02
2019-01-12T01:23:28.712Z,70.07
2019-01-12T01:25:59.430Z,70.91
2019-01-12T01:28:31.977Z,69.83
2019-01-12T01:31:02.380Z,69.37
2019-01-12T01:33:32.772Z,69.30
2019-01-12T01:36:03.267Z,69.25
2019-01-12T01:38:33.763Z,69.61
2019-01-12T01:41:03.989Z,69.31
2019-01-12T01:43:34.496Z,68.90
2019-01-12T01:46:05.136Z,68.68
2019-01-12T01:48:35.550Z,69.30
2019-01-12T01:51:06.180Z,69.47
2019-01-12T01:53:36.528Z,69.39
2019-01-12T01:56:06.933Z,69.49
2019-01-12T01:58:37.368Z,69.50
2019-01-12T02:01:07.912Z,69.14
2019-01-12T02:03:38.358Z,68.72
2019-01-12T02:06:08.948Z,68.99
2019-01-12T02:08:39.319Z,69.20
2019-01-12T02:11:09.631Z,69.05
2019-01-12T02:13:40.114Z,68.77
2019-01-12T02:16:10.466Z,68.37
2019-01-12T02:18:41.886Z,68.36
2019-01-12T02:21:12.402Z,68.44
2019-01-12T02:23:42.807Z,68.41
2019-01-12T02:26:13.031Z,68.66
2019-01-12T02:28:43.512Z,68.85
2019-01-12T02:31:13.913Z,68.83
2019-01-12T02:33:44.597Z,68.76
2019-01-12T02:36:16.656Z,68.68
2019-01-12T02:38:47.032Z,68.65
2019-01-12T02:41:17.409Z,68.38
2019-01-12T02:43:47.974Z,68.33
2019-01-12T02:46:18.374Z,68.50
2019-01-12T02:48:48.807Z,68.35
2019-01-12T02:51:19.756Z,68.27
2019-01-12T02:53:50.091Z,68.42
2019-01-12T02:56:20.390Z,68.04
2019-01-12T02:58:50.716Z,67.76
2019-01-12T03:01:21.378Z,67.88
2019-01-12T03:03:51.926Z,67.58
2019-01-12T03:06:22.300Z,67.87
2019-01-12T03:08:52.750Z,67.92
2019-01-12T03:11:23.361Z,67.69
2019-01-12T03:13:53.856Z,68.13
2019-01-12T03:16:24.326Z,68.11
2019-01-12T03:18:54.763Z,68.24
2019-01-12T03:21:25.239Z,68.52
2019-01-12T03:23:55.599Z,68.65
2019-01-12T03:26:26.355Z,68.67
2019-01-12T03:28:56.836Z,68.61
2019-01-12T03:31:27.127Z,68.50
2019-01-12T03:33:57.701Z,68.52
2019-01-12T03:36:28.212Z,68.55
2019-01-12T03:38:58.578Z,68.39
2019-01-12T03:41:28.923Z,68.56
2019-01-12T03:43:59.730Z,68.19
2019-01-12T03:46:30.088Z,68.07
2019-01-12T03:49:00.519Z,67.80
2019-01-12T03:51:30.917Z,67.23
2019-01-12T03:54:01.176Z,67.09
2019-01-12T03:56:31.510Z,67.32
2019-01-12T03:59:01.894Z,67.36
2019-01-12T04:01:32.332Z,67.10
2019-01-12T04:04:02.708Z,67.10
2019-01-12T04:06:33.155Z,66.98
2019-01-12T04:09:05.363Z,67.18
2019-01-12T04:11:35.808Z,67.23
2019-01-12T04:14:06.407Z,67.19
2019-01-12T04:16:36.864Z,66.81
2019-01-12T04:19:07.186Z,67.03
2019-01-12T04:21:38.577Z,66.90
2019-01-12T04:24:08.965Z,67.05
2019-01-12T04:26:39.370Z,67.11
2019-01-12T04:29:10.175Z,67.23
2019-01-12T04:31:40.699Z,66.99
2019-01-12T04:34:11.146Z,66.74
2019-01-12T04:36:41.687Z,67.44
2019-01-12T04:39:12.174Z,67.34
2019-01-12T04:41:42.590Z,67.31
2019-01-12T04:44:12.968Z,67.19
2019-01-12T04:46:43.328Z,67.59
2019-01-12T04:49:13.653Z,67.83
2019-01-12T04:51:43.968Z,67.40
2019-01-12T04:54:14.495Z,67.31
2019-01-12T04:56:44.802Z,67.45
2019-01-12T04:59:15.256Z,67.21
2019-01-12T05:01:45.801Z,67.34
2019-01-12T05:04:16.224Z,67.31
2019-01-12T05:06:46.770Z,67.29
2019-01-12T05:09:17.069Z,67.40
2019-01-12T05:11:47.529Z,67.54
2019-01-12T05:14:18.930Z,67.47
2019-01-12T05:16:49.276Z,67.47
2019-01-12T05:19:19.843Z,66.89
2019-01-12T05:21:50.198Z,66.89
2019-01-12T05:24:20.753Z,66.34
2019-01-12T05:26:51.488Z,66.87
2019-01-12T05:29:21.886Z,66.57
2019-01-12T05:31:52.300Z,66.20
2019-01-12T05:34:22.689Z,66.15
2019-01-12T05:36:53.473Z,65.67
2019-01-12T05:39:23.937Z,65.49
2019-01-12T05:41:54.497Z,65.62
2019-01-12T05:44:24.873Z,65.56
2019-01-12T05:46:55.335Z,65.66
2019-01-12T05:49:25.761Z,65.62
2019-01-12T05:51:56.069Z,65.32
2019-01-12T05:54:26.432Z,65.14
2019-01-12T05:56:56.788Z,64.98
2019-01-12T05:59:27.131Z,65.39
2019-01-12T06:01:57.498Z,65.15
2019-01-12T06:04:27.924Z,65.31
2019-01-12T06:06:58.481Z,65.61
2019-01-12T06:09:28.899Z,65.62
2019-01-12T06:11:59.241Z,65.83
2019-01-12T06:14:29.824Z,65.66
2019-01-12T06:17:00.302Z,65.56
2019-01-12T06:19:30.622Z,65.63
2019-01-12T06:22:01.105Z,65.58
2019-01-12T06:24:32.673Z,65.99
2019-01-12T06:27:03.138Z,65.38
2019-01-12T06:29:33.530Z,65.00
2019-01-12T06:32:05.251Z,65.04
2019-01-12T06:34:35.804Z,64.82
2019-01-12T06:37:06.496Z,64.46
2019-01-12T06:39:36.809Z,64.89
2019-01-12T06:42:07.175Z,64.70
2019-01-12T06:44:37.685Z,64.51
2019-01-12T06:47:08.057Z,64.53
2019-01-12T06:49:38.906Z,64.72
2019-01-12T06:52:09.242Z,64.32
2019-01-12T06:54:40.140Z,64.33
2019-01-12T06:57:10.947Z,64.11
2019-01-12T06:59:41.452Z,64.35
2019-01-12T07:02:11.871Z,64.05
2019-01-12T07:04:42.246Z,64.16
2019-01-12T07:07:12.684Z,63.95
2019-01-12T07:09:43.035Z,63.63
2019-01-12T07:12:13.522Z,63.67
2019-01-12T07:14:43.946Z,63.68
2019-01-12T07:17:14.623Z,63.80
2019-01-12T07:19:45.020Z,63.47
2019-01-12T07:22:15.375Z,63.72
2019-01-12T07:24:45.864Z,64.24
2019-01-12T07:27:16.370Z,63.95
2019-01-12T07:29:47.071Z,64.14
2019-01-12T07:32:19.593Z,64.16
2019-01-12T07:34:50.105Z,64.11
2019-01-12T07:37:20.840Z,63.76
2019-01-12T07:39:52.579Z,64.32
2019-01-12T07:42:23.109Z,64.14
2019-01-12T07:44:53.571Z,64.26
2019-01-12T07:47:23.942Z,64.58
2019-01-12T07:49:54.406Z,64.01
2019-01-12T07:52:26.227Z,64.36
2019-01-12T07:54:56.569Z,64.27
2019-01-12T07:57:26.953Z,64.39
2019-01-12T07:59:57.500Z,63.97
2019-01-12T08:02:27.980Z,64.33
2019-01-12T08:04:58.546Z,64.12
2019-01-12T08:07:29.280Z,63.75
2019-01-12T08:09:59.723Z,63.91
2019-01-12T08:12:33.538Z,63.58
2019-01-12T08:15:04.418Z,63.48
2019-01-12T08:17:34.811Z,63.51
2019-01-12T08:20:06.316Z,63.48
2019-01-12T08:22:36.317Z,63.73
2019-01-12T08:25:07.598Z,63.75
2019-01-12T08:27:39.058Z,63.39
2019-01-12T08:30:11.984Z,63.12
2019-01-12T08:32:42.436Z,62.97
2019-01-12T08:35:12.770Z,62.97
2019-01-12T08:37:44.276Z,63.34
2019-01-12T08:40:14.888Z,62.44
2019-01-12T08:42:44.958Z,62.33
2019-01-12T08:45:15.331Z,62.05
2019-01-12T08:47:45.739Z,61.52
2019-01-12T08:50:20.696Z,61.24
2019-01-12T08:52:50.854Z,61.34
2019-01-12T08:55:21.114Z,60.55
2019-01-12T08:57:51.991Z,60.65
2019-01-12T09:00:23.472Z,60.17
2019-01-12T09:02:53.541Z,60.11
2019-01-12T09:05:23.908Z,59.59
2019-01-12T09:07:54.488Z,59.26
2019-01-12T09:10:24.978Z,59.09
2019-01-12T09:12:55.285Z,59.00
2019-01-12T09:15:26.575Z,58.58
2019-01-12T09:17:56.772Z,58.06
2019-01-12T09:20:27.789Z,58.07
2019-01-12T09:22:58.113Z,57.92
2019-01-12T09:25:28.631Z,58.17
2019-01-12T09:27:59.362Z,57.64
2019-01-12T09:30:29.849Z,57.92
2019-01-12T09:33:00.022Z,57.97
2019-01-12T09:35:31.406Z,57.95
2019-01-12T09:38:02.293Z,57.37
2019-01-12T09:40:32.971Z,57.30
2019-01-12T09:43:03.524Z,57.39
2019-01-12T09:45:33.854Z,57.24
2019-01-12T09:48:04.071Z,57.13
2019-01-12T09:50:34.535Z,57.15
2019-01-12T09:53:05.290Z,57.31
2019-01-12T09:55:35.414Z,57.03
2019-01-12T09:58:05.738Z,57.49
2019-01-12T10:00:36.807Z,57.63
2019-01-12T10:03:08.699Z,57.67
2019-01-12T10:05:39.056Z,57.62
2019-01-12T10:08:09.821Z,57.57
2019-01-12T10:10:39.936Z,57.32
2019-01-12T10:13:10.534Z,57.31
2019-01-12T10:15:41.215Z,57.63
2019-01-12T10:18:11.566Z,57.27
2019-01-12T10:20:41.845Z,57.04
2019-01-12T10:23:12.229Z,57.33
2019-01-12T10:25:42.695Z,57.40
2019-01-12T10:28:13.122Z,56.43
2019-01-12T10:30:43.547Z,56.75
2019-01-12T10:33:14.165Z,55.55
2019-01-12T10:35:44.661Z,55.60
2019-01-12T10:38:16.293Z,55.95
2019-01-12T10:40:46.484Z,55.37
2019-01-12T10:43:16.518Z,56.01
2019-01-12T10:45:48.635Z,55.18
2019-01-12T10:48:18.665Z,55.12
2019-01-12T10:50:48.630Z,55.61
2019-01-12T10:53:18.891Z,55.29
2019-01-12T10:55:49.063Z,55.54
2019-01-12T10:58:19.036Z,55.07
2019-01-12T11:00:49.498Z,54.81
2019-01-12T11:03:19.697Z,54.69
2019-01-12T11:05:50.389Z,54.93
2019-01-12T11:08:22.671Z,54.89
2019-01-12T11:10:52.907Z,54.99
2019-01-12T11:13:24.380Z,54.64
2019-01-12T11:15:54.639Z,54.50
2019-01-12T11:18:24.974Z,54.53
2019-01-12T11:20:55.594Z,53.62
2019-01-12T11:23:26.407Z,53.61
2019-01-12T11:25:56.870Z,53.06
2019-01-12T11:28:27.190Z,52.89
2019-01-12T11:30:57.833Z,52.97
2019-01-12T11:33:28.282Z,52.28
2019-01-12T11:35:59.919Z,51.96
2019-01-12T11:38:30.242Z,52.20
2019-01-12T11:41:00.849Z,52.53
2019-01-12T11:43:31.219Z,53.34
2019-01-12T11:46:01.515Z,53.17
2019-01-12T11:48:32.183Z,53.06
2019-01-12T11:51:07.084Z,53.16
2019-01-12T11:53:37.352Z,52.31
2019-01-12T11:56:07.657Z,52.32
2019-01-12T11:58:37.900Z,52.54
2019-01-12T12:01:08.307Z,52.55
2019-01-12T12:03:38.599Z,53.04
2019-01-12T12:06:09.117Z,52.65
2019-01-12T12:08:39.229Z,52.96
2019-01-12T12:11:09.280Z,53.23
2019-01-12T12:13:40.594Z,52.62
2019-01-12T12:16:10.695Z,52.46
2019-01-12T12:18:40.697Z,52.34
2019-01-12T12:21:11.105Z,53.08
2019-01-12T12:23:41.890Z,53.56
2019-01-12T12:26:11.975Z,52.21
2019-01-12T12:28:42.259Z,51.89
2019-01-12T12:31:12.417Z,52.22
2019-01-12T12:33:42.399Z,52.56
2019-01-12T12:36:12.910Z,52.41
2019-01-12T12:38:44.625Z,53.11
2019-01-12T12:41:14.836Z,52.34
2019-01-12T12:43:45.314Z,52.65
2019-01-12T12:46:15.330Z,52.69
2019-01-12T12:48:45.379Z,52.60
2019-01-12T12:51:16.226Z,52.08
2019-01-12T12:53:47.615Z,52.02
2019-01-12T12:56:20.018Z,52.13
2019-01-12T12:58:50.619Z,52.38
2019-01-12T13:01:21.071Z,52.52
2019-01-12T13:03:51.117Z,52.42
2019-01-12T13:06:21.308Z,52.15
2019-01-12T13:08:51.486Z,52.29
2019-01-12T13:11:21.614Z,52.15
2019-01-12T13:13:51.812Z,52.22
2019-01-12T13:16:24.828Z,52.18
2019-01-12T13:18:54.841Z,51.75
2019-01-12T13:21:25.558Z,51.37
2019-01-12T13:23:55.588Z,51.50
2019-01-12T13:26:25.671Z,51.44
2019-01-12T13:28:55.796Z,51.74
2019-01-12T13:31:26.727Z,51.16
2019-01-12T13:33:57.707Z,51.37
2019-01-12T13:36:28.493Z,51.48
2019-01-12T13:38:58.540Z,52.08
2019-01-12T13:41:28.593Z,52.73
2019-01-12T13:43:58.806Z,52.96
2019-01-12T13:46:29.077Z,53.24
2019-01-12T13:48:59.318Z,52.57
2019-01-12T13:51:29.778Z,52.82
2019-01-12T13:53:59.932Z,52.59
2019-01-12T13:56:30.470Z,51.83
2019-01-12T13:59:01.266Z,51.99
2019-01-12T14:01:31.800Z,51.51
2019-01-12T14:04:02.284Z,52.43
2019-01-12T14:06:32.632Z,52.01
2019-01-12T14:09:04.071Z,51.06
2019-01-12T14:11:34.095Z,51.58
2019-01-12T14:14:04.202Z,51.16
2019-01-12T14:16:34.397Z,51.50
2019-01-12T14:19:04.396Z,52.08
2019-01-12T14:21:35.062Z,52.52
2019-01-12T14:24:05.187Z,53.02
2019-01-12T14:26:35.379Z,52.89
2019-01-12T14:29:05.864Z,53.25
2019-01-12T14:31:36.104Z,53.44
2019-01-12T14:34:06.199Z,53.87
2019-01-12T14:36:36.640Z,54.99
2019-01-12T14:39:11.068Z,55.49
2019-01-12T14:41:41.348Z,55.47
2019-01-12T14:44:11.428Z,55.94
2019-01-12T14:46:41.786Z,55.88
2019-01-12T14:49:12.103Z,55.97
2019-01-12T14:51:42.261Z,56.19
2019-01-12T14:54:12.361Z,56.33
2019-01-12T14:56:42.839Z,56.07
2019-01-12T14:59:13.499Z,56.05
2019-01-12T15:01:43.679Z,56.51
2019-01-12T15:04:14.302Z,56.36
2019-01-12T15:06:44.295Z,56.68
2019-01-12T15:09:14.658Z,57.29
2019-01-12T15:11:44.959Z,57.79
2019-01-12T15:14:14.979Z,57.96
2019-01-12T15:16:46.712Z,58.40
2019-01-12T15:19:17.431Z,58.31
2019-01-12T15:21:47.969Z,58.65
2019-01-12T15:24:19.693Z,58.80
2019-01-12T15:26:50.662Z,58.66
2019-01-12T15:29:21.592Z,58.66
2019-01-12T15:31:51.977Z,59.01
2019-01-12T15:34:23.188Z,59.18
2019-01-12T15:36:55.333Z,59.26
2019-01-12T15:39:25.841Z,59.30
2019-01-12T15:41:56.503Z,59.88
2019-01-12T15:44:26.882Z,60.13
2019-01-12T15:46:58.058Z,59.91
2019-01-12T15:49:28.991Z,59.04
2019-01-12T15:51:59.182Z,58.36
2019-01-12T15:54:29.639Z,58.03
2019-01-12T15:57:00.090Z,58.02
2019-01-12T15:59:31.922Z,57.72
2019-01-12T16:02:03.819Z,57.71
2019-01-12T16:04:34.607Z,57.52
2019-01-12T16:07:05.042Z,56.51
2019-01-12T16:09:35.867Z,56.63
2019-01-12T16:12:06.288Z,56.47
2019-01-12T16:14:36.838Z,56.21
2019-01-12T16:17:07.321Z,56.23
2019-01-12T16:19:37.806Z,56.08
2019-01-12T16:22:08.404Z,56.31
2019-01-12T16:24:41.153Z,56.66
2019-01-12T16:27:11.678Z,56.57
2019-01-12T16:29:42.210Z,56.55
2019-01-12T16:32:12.888Z,56.72
2019-01-12T16:34:43.481Z,56.88
2019-01-12T16:37:15.676Z,57.00
2019-01-12T16:39:46.380Z,56.83
2019-01-12T16:42:17.110Z,56.84
2019-01-12T16:44:48.798Z,57.14
2019-01-12T16:47:19.384Z,57.65
2019-01-12T16:49:49.929Z,57.68
2019-01-12T16:52:20.495Z,57.58
2019-01-12T16:54:51.213Z,57.28
2019-01-12T16:57:21.888Z,57.93
2019-01-12T16:59:52.354Z,58.05
2019-01-12T17:02:23.309Z,57.97
2019-01-12T17:04:53.890Z,58.11
2019-01-12T17:07:24.607Z,58.32
2019-01-12T17:09:55.440Z,58.07
2019-01-12T17:12:26.615Z,58.21
2019-01-12T17:14:58.358Z,58.12
2019-01-12T17:17:28.803Z,58.14
2019-01-12T17:19:59.278Z,58.52
2019-01-12T17:22:29.847Z,58.52
2019-01-12T17:25:00.673Z,58.34
2019-01-12T17:27:31.218Z,58.95
2019-01-12T17:30:02.214Z,58.80
2019-01-12T17:32:39.112Z,58.61
2019-01-12T17:35:11.201Z,58.67
2019-01-12T17:37:42.017Z,58.14
2019-01-12T17:40:13.613Z,58.31
2019-01-12T17:42:44.084Z,58.03
2019-01-12T17:45:16.823Z,57.91
2019-01-12T17:47:47.498Z,57.66
2019-01-12T17:50:20.744Z,57.92
2019-01-12T17:52:51.989Z,57.95
2019-01-12T17:55:24.697Z,57.96
2019-01-12T17:57:56.018Z,58.12
2019-01-12T18:00:35.096Z,57.40
2019-01-12T18:03:07.723Z,57.38
2019-01-12T18:05:38.340Z,57.93
2019-01-12T18:08:09.016Z,57.86
2019-01-12T18:10:39.747Z,58.26
2019-01-12T18:13:10.383Z,57.96
2019-01-12T18:15:41.178Z,57.57
2019-01-12T18:18:12.009Z,57.73
2019-01-12T18:20:42.859Z,57.97
2019-01-12T18:23:14.032Z,58.14
2019-01-12T18:25:45.755Z,58.58
2019-01-12T18:28:16.670Z,58.61
2019-01-12T18:30:47.363Z,58.53
2019-01-12T18:33:18.113Z,58.53
2019-01-12T18:35:48.782Z,58.09
2019-01-12T18:38:19.431Z,58.93
2019-01-12T18:40:50.515Z,59.69
2019-01-12T18:43:21.138Z,58.70
2019-01-12T18:45:51.761Z,58.22
2019-01-12T18:48:22.903Z,59.32
2019-01-12T18:50:53.693Z,58.95
2019-01-12T18:53:24.208Z,59.09
2019-01-12T18:55:54.964Z,58.82
2019-01-12T18:58:25.948Z,59.13
2019-01-12T19:00:56.604Z,59.33
2019-01-12T19:03:27.567Z,58.96
2019-01-12T19:05:58.065Z,59.14
2019-01-12T19:08:29.934Z,59.39
2019-01-12T19:11:01.745Z,60.14
2019-01-12T19:13:32.774Z,59.91
2019-01-12T19:16:03.707Z,59.65
2019-01-12T19:18:35.972Z,59.49
2019-01-12T19:21:06.521Z,59.22
2019-01-12T19:23:39.140Z,59.66
2019-01-12T19:26:10.826Z,59.53
2019-01-12T19:28:41.552Z,60.28
2019-01-12T19:31:12.131Z,61.76
2019-01-12T19:33:43.765Z,61.05
2019-01-12T19:36:14.446Z,60.79
2019-01-12T19:38:45.213Z,60.76
2019-01-12T19:41:15.788Z,61.09
2019-01-12T19:43:47.360Z,60.87
2019-01-12T19:46:18.126Z,60.91
2019-01-12T19:48:50.496Z,60.58
2019-01-12T19:51:20.938Z,60.59
2019-01-12T19:53:51.519Z,60.73
2019-01-12T19:56:22.128Z,60.51
2019-01-12T19:58:52.705Z,60.20
2019-01-12T20:01:23.889Z,59.85
2019-01-12T20:03:54.555Z,59.63
2019-01-12T20:06:25.211Z,60.93
2019-01-12T20:08:55.916Z,60.44
2019-01-12T20:11:26.501Z,60.60
2019-01-12T20:13:57.039Z,60.41
2019-01-12T20:16:27.825Z,60.70
2019-01-12T20:18:58.856Z,60.60
2019-01-12T20:21:30.046Z,60.42
2019-01-12T20:24:00.751Z,60.68
2019-01-12T20:26:31.486Z,60.35
2019-01-12T20:29:02.231Z,60.18
2019-01-12T20:31:47.757Z,60.50
2019-01-12T20:34:44.507Z,60.41
2019-01-12T20:38:07.714Z,60.89
2019-01-12T20:41:15.860Z,60.67
2019-01-12T20:43:58.790Z,60.50
2019-01-12T20:46:59.057Z,60.64
2019-01-12T20:49:38.738Z,60.52
2019-01-12T20:53:03.821Z,60.01
2019-01-12T20:55:57.257Z,60.23
2019-01-12T20:59:01.357Z,60.68
2019-01-12T21:01:56.939Z,60.81
2019-01-12T21:05:03.441Z,60.97
2019-01-12T21:07:53.041Z,62.10
2019-01-12T21:10:34.561Z,61.54
2019-01-12T21:13:32.509Z,61.44
2019-01-12T21:16:13.059Z,61.43
2019-01-12T21:18:43.897Z,61.41
2019-01-12T21:21:14.182Z,61.93
2019-01-12T21:23:44.914Z,61.79
2019-01-12T21:26:15.704Z,61.68
2019-01-12T21:28:46.298Z,61.69
2019-01-12T21:31:17.042Z,61.84
2019-01-12T21:33:48.763Z,62.31
2019-01-12T21:36:19.430Z,62.08
2019-01-12T21:38:49.963Z,61.88
2019-01-12T21:41:20.849Z,62.31
2019-01-12T21:43:51.597Z,62.54
2019-01-12T21:46:22.276Z,62.39
2019-01-12T21:48:53.612Z,62.53
2019-01-12T21:51:25.947Z,62.50
2019-01-12T21:53:57.937Z,63.33
2019-01-12T21:56:28.597Z,63.76
2019-01-12T21:58:59.188Z,63.59
2019-01-12T22:01:36.106Z,63.35
2019-01-12T22:04:02.608Z,63.53
2019-01-12T22:06:34.716Z,63.00
2019-01-12T22:09:08.308Z,62.00
2019-01-12T22:11:40.249Z,61.97
2019-01-12T22:14:11.172Z,62.06
2019-01-12T22:16:41.881Z,61.86
2019-01-12T22:19:16.699Z,62.48
2019-01-12T22:21:51.178Z,62.28
2019-01-12T22:24:26.238Z,62.36
2019-01-12T22:27:00.859Z,62.16
2019-01-12T22:29:35.954Z,62.81
2019-01-12T22:32:06.526Z,62.64
2019-01-12T22:34:37.479Z,62.85
2019-01-12T22:37:08.327Z,62.62
2019-01-12T22:39:38.976Z,62.70
2019-01-12T22:42:09.701Z,63.00
2019-01-12T22:44:40.713Z,63.51
2019-01-12T22:47:12.583Z,63.83
2019-01-12T22:49:44.197Z,63.26
2019-01-12T22:52:14.767Z,63.21
2019-01-12T22:54:45.381Z,63.26
2019-01-12T22:57:16.110Z,63.23
2019-01-12T22:59:46.683Z,63.29
2019-01-12T23:02:17.660Z,63.33
2019-01-12T23:04:49.725Z,63.10
2019-01-12T23:07:20.355Z,63.44
2019-01-12T23:09:51.112Z,63.25
2019-01-12T23:12:21.616Z,63.19
2019-01-12T23:14:52.231Z,63.21
2019-01-12T23:17:23.134Z,63.40
2019-01-12T23:19:54.332Z,63.30
2019-01-12T23:22:25.080Z,63.72
2019-01-12T23:24:55.876Z,63.61
2019-01-12T23:27:26.629Z,63.53
2019-01-12T23:30:04.116Z,63.87
2019-01-12T23:32:30.698Z,64.31
2019-01-12T23:35:02.609Z,63.85
2019-01-12T23:37:33.255Z,63.74
2019-01-12T23:40:03.908Z,64.06
2019-01-12T23:42:35.709Z,64.16
2019-01-12T23:45:08.022Z,64.21
2019-01-12T23:47:38.758Z,64.18
2019-01-12T23:50:10.815Z,64.19
2019-01-12T23:52:41.505Z,63.93
2019-01-12T23:55:12.301Z,64.07
2019-01-12T23:57:42.996Z,64.19
